Time;durP1;ratioP1;P1;durP2;ratioP2;P2;SDS_P1;SDS_P2;PMS_P1;PMS_P2;Temp;Humidity;BMP_temperature;BMP_pressure;BME280_temperature;BME280_humidity;BME280_pressure;Samples;Min_cycle;Max_cycle;Signal;HPM_P1;HPM_P2
2023/10/05 00:01:27;;;;;;;7.60;5.10;;;;;;;6.65;77.19;98148.61;107900;1245;97788;-80
2023/10/05 00:03:53;;;;;;;8.30;5.50;;;;;;;6.65;77.37;98146.80;107445;1237;100017;-80
2023/10/05 00:06:24;;;;;;;10.30;5.60;;;;;;;6.68;77.42;98145.60;107446;1242;97778;-80
2023/10/05 00:08:55;;;;;;;8.80;4.90;;;;;;;6.71;77.47;98144.42;107296;1244;97163;-80
2023/10/05 00:11:24;;;;;;;7.90;5.00;;;;;;;6.70;77.52;98140.77;107605;1238;102073;-80
2023/10/05 00:13:50;;;;;;;6.80;5.10;;;;;;;6.69;77.54;98139.64;107608;1238;101258;-80
2023/10/05 00:16:20;;;;;;;8.50;5.10;;;;;;;6.67;77.59;98137.11;107526;1249;97287;-80
2023/10/05 00:18:51;;;;;;;8.30;5.20;;;;;;;6.67;77.74;98124.31;107511;1251;97198;-81
2023/10/05 00:21:20;;;;;;;8.40;4.50;;;;;;;6.71;77.79;98125.69;107240;1251;96673;-74
2023/10/05 00:24:18;;;;;;;7.40;5.20;;;;;;;6.72;77.77;98129.75;107428;1242;101877;-80
2023/10/05 00:27:25;;;;;;;9.70;4.70;;;;;;;6.74;77.83;98123.70;106904;1257;101447;-79
2023/10/05 00:30:33;;;;;;;8.40;5.30;;;;;;;6.71;77.95;98127.16;105538;1269;100242;-80
2023/10/05 00:33:10;;;;;;;9.30;5.00;;;;;;;6.71;77.90;98128.67;105045;1266;96637;-88
2023/10/05 00:36:13;;;;;;;5.70;4.10;;;;;;;6.69;77.81;98121.33;104937;1266;97234;-88
2023/10/05 00:39:31;;;;;;;4.90;4.10;;;;;;;6.65;77.75;98120.41;104394;1280;102115;-76
2023/10/05 01:02:03;;;;;;;9.60;5.50;;;;;;;6.54;78.15;98093.70;101531;1302;638684;-85
2023/10/05 01:05:17;;;;;;;13.30;5.20;;;;;;;6.55;78.44;98101.14;103823;1291;96406;-85
2023/10/05 01:08:26;;;;;;;8.40;4.70;;;;;;;6.54;78.38;98102.82;103336;1284;97226;-87
2023/10/05 01:21:25;;;;;;;7.60;4.40;;;;;;;6.53;77.96;98092.95;100823;1314;640052;-78
2023/10/05 01:24:36;;;;;;;7.30;4.50;;;;;;;6.49;78.15;98088.35;102812;1281;95951;-79
2023/10/05 01:27:44;;;;;;;12.30;5.30;;;;;;;6.40;78.26;98087.02;102266;1290;96283;-79
2023/10/05 01:46:57;;;;;;;7.40;4.80;;;;;;;6.30;78.83;98065.17;101081;1311;637822;-85
2023/10/05 01:50:05;;;;;;;12.60;4.90;;;;;;;6.26;79.37;98068.73;103205;1284;96078;-84
2023/10/05 01:53:07;;;;;;;10.60;5.50;;;;;;;6.31;79.57;98067.48;102364;1300;96888;-85
2023/10/05 02:11:24;;;;;;;7.20;4.10;;;;;;;6.36;79.06;98052.60;101751;1295;635993;-79
2023/10/05 02:13:53;;;;;;;8.70;3.50;;;;;;;6.31;79.05;98053.00;104259;1267;95948;-79
2023/10/05 02:16:52;;;;;;;6.20;4.40;;;;;;;6.30;79.26;98052.36;103954;1280;96163;-77
2023/10/05 02:19:23;;;;;;;7.10;4.50;;;;;;;6.30;79.36;98058.14;104232;1273;98634;-77
2023/10/05 02:21:54;;;;;;;7.50;4.40;;;;;;;6.31;79.41;98059.26;104206;1280;101562;-77
2023/10/05 02:24:25;;;;;;;5.90;4.40;;;;;;;6.32;79.49;98054.34;103767;1285;219593;-78
2023/10/05 02:30:29;;;;;;;8.50;5.10;;;;;;;6.32;79.56;98045.42;104295;1273;97009;-77
2023/10/05 02:33:27;;;;;;;6.90;5.00;;;;;;;6.30;79.70;98041.91;104208;1279;99902;-79
2023/10/05 02:36:20;;;;;;;9.50;5.20;;;;;;;6.27;79.78;98037.23;103933;1279;101142;-78
2023/10/05 02:38:53;;;;;;;7.30;5.00;;;;;;;6.28;79.99;98042.24;104102;1271;99048;-78
2023/10/05 02:42:03;;;;;;;9.00;5.90;;;;;;;6.31;79.97;98037.11;103965;1271;96137;-80
2023/10/05 02:44:39;;;;;;;11.00;6.00;;;;;;;6.31;80.07;98029.77;103935;1274;96230;-79
2023/10/05 02:47:08;;;;;;;9.90;5.70;;;;;;;6.34;80.20;98030.67;104200;1271;101089;-78
2023/10/05 02:49:48;;;;;;;8.30;5.10;;;;;;;6.37;80.09;98023.98;104206;1267;101600;-76
2023/10/05 02:52:47;;;;;;;7.40;4.60;;;;;;;6.36;80.10;98026.59;104183;1281;99940;-76
2023/10/05 02:55:36;;;;;;;9.70;4.90;;;;;;;6.37;80.16;98026.39;103900;1289;96044;-79
2023/10/05 02:58:13;;;;;;;7.90;4.80;;;;;;;6.41;80.28;98028.08;103933;1276;96700;-77
2023/10/05 03:01:21;;;;;;;13.50;5.30;;;;;;;6.43;80.24;98026.86;103957;1282;101071;-79
2023/10/05 03:04:16;;;;;;;10.10;4.80;;;;;;;6.41;80.19;98029.52;103264;1278;100188;-79
2023/10/05 03:06:48;;;;;;;8.60;5.20;;;;;;;6.40;80.25;98030.17;102889;1293;100120;-84
2023/10/05 03:09:40;;;;;;;9.40;4.90;;;;;;;6.39;80.30;98031.90;103175;1280;96054;-79
2023/10/05 03:12:10;;;;;;;14.10;4.70;;;;;;;6.39;80.33;98033.60;103104;1283;96195;-83
2023/10/05 03:14:39;;;;;;;7.30;4.60;;;;;;;6.36;80.34;98029.27;103469;1279;100772;-90
2023/10/05 03:17:37;;;;;;;7.00;4.50;;;;;;;6.34;80.37;98026.05;104036;1286;101535;-91
2023/10/05 03:20:21;;;;;;;13.90;5.10;;;;;;;6.34;80.44;98026.63;102755;1293;100084;-90
2023/10/05 03:23:30;;;;;;;6.80;4.80;;;;;;;6.37;80.61;98024.81;102814;1288;96279;-92
2023/10/05 04:39:25;;;;;;;21.10;9.90;;;;;;;6.52;81.70;98026.92;102160;1299;110458;-82
2023/10/05 05:42:54;;;;;;;18.90;7.80;;;;;;;6.70;82.10;98022.65;102846;1285;98050;-90
2023/10/05 05:45:51;;;;;;;15.00;7.80;;;;;;;6.74;82.17;98022.06;103306;1293;97560;-77
2023/10/05 05:49:08;;;;;;;19.00;7.40;;;;;;;6.79;82.32;98016.70;103735;1284;96762;-77
2023/10/05 05:51:59;;;;;;;12.30;6.40;;;;;;;6.85;82.51;98007.56;103303;1291;101255;-78
2023/10/05 05:54:36;;;;;;;15.10;6.60;;;;;;;6.92;82.52;97997.66;103460;1280;100221;-74
2023/10/05 05:57:31;;;;;;;13.70;5.90;;;;;;;6.99;82.53;97997.02;103499;1280;100195;-76
2023/10/05 06:00:29;;;;;;;14.30;6.80;;;;;;;7.06;82.53;97989.81;103437;1280;95962;-76
2023/10/05 06:03:04;;;;;;;13.70;5.50;;;;;;;7.14;82.63;97991.21;103090;1280;96142;-80
2023/10/05 06:06:13;;;;;;;12.80;6.30;;;;;;;7.21;82.59;97988.84;102939;1280;100803;-81
2023/10/05 06:09:12;;;;;;;10.20;6.20;;;;;;;7.28;82.80;97988.00;103638;1280;100010;-78
2023/10/05 06:12:24;;;;;;;11.50;6.30;;;;;;;7.37;82.89;97983.41;102607;1279;101522;-79
2023/10/05 06:15:38;;;;;;;11.60;7.10;;;;;;;7.47;82.93;97986.52;102864;1299;96013;-76
2023/10/05 06:18:15;;;;;;;11.40;6.70;;;;;;;7.56;82.84;97989.50;102587;1297;96080;-82
2023/10/05 06:21:23;;;;;;;10.70;6.40;;;;;;;7.65;82.88;97984.16;102880;1281;99970;-80
2023/10/05 06:24:03;;;;;;;11.70;6.60;;;;;;;7.75;82.95;97983.02;102934;1286;100665;-80
2023/10/05 06:30:26;;;;;;;13.70;7.40;;;;;;;7.98;83.04;97981.96;102672;1296;97263;-76
2023/10/05 06:42:32;;;;;;;14.50;6.70;;;;;;;8.41;83.10;97973.20;102304;1292;100887;-75
2023/10/05 06:48:40;;;;;;;14.50;7.60;;;;;;;8.74;83.24;97962.40;102548;1286;97114;-81
2023/10/05 06:54:27;;;;;;;13.50;5.90;;;;;;;9.12;82.76;97970.67;102468;1289;102428;-80
2023/10/05 06:57:25;;;;;;;12.40;5.70;;;;;;;9.37;82.26;97967.91;102850;1294;99015;-84
2023/10/05 07:00:26;;;;;;;16.60;5.70;;;;;;;9.61;81.65;97963.70;102895;1282;96830;-80
2023/10/05 07:06:38;;;;;;;11.50;5.50;;;;;;;10.12;80.62;97963.39;105047;1257;108577;-87
2023/10/05 07:09:47;;;;;;;9.40;5.40;;;;;;;10.30;80.34;97958.45;103912;1273;100111;-87
2023/10/05 07:25:51;;;;;;;9.20;4.70;;;;;;;11.51;78.95;97943.20;101966;1297;638947;-88
2023/10/05 07:29:08;;;;;;;7.80;4.90;;;;;;;11.81;77.73;97940.40;104019;1278;96827;-88
2023/10/05 07:32:57;;;;;;;8.40;4.30;;;;;;;12.15;77.14;97941.85;103216;1283;97029;-88
2023/10/05 09:00:39;;;;;;;8.60;3.70;;;;;;;17.12;59.77;97900.52;103902;1275;108818;-87
2023/10/05 09:03:53;;;;;;;7.40;2.80;;;;;;;17.22;59.64;97892.91;102938;1286;99039;-86
2023/10/05 09:50:13;;;;;;;5.40;2.80;;;;;;;19.12;52.38;97855.30;105636;1265;98159;-88
2023/10/05 09:53:21;;;;;;;4.80;3.30;;;;;;;19.11;51.98;97840.79;106724;1254;101587;-86
2023/10/05 09:56:28;;;;;;;5.10;2.90;;;;;;;19.14;51.98;97836.45;106672;1255;98824;-88
2023/10/05 09:59:37;;;;;;;5.30;2.90;;;;;;;19.17;51.29;97839.84;106495;1255;96262;-90
2023/10/05 10:02:45;;;;;;;4.80;2.60;;;;;;;19.15;50.89;97834.99;105078;1267;96839;-87
2023/10/05 10:33:18;;;;;;;4.60;2.90;;;;;;;19.66;46.85;97811.30;106733;1251;98446;-82
2023/10/05 10:36:26;;;;;;;4.40;2.50;;;;;;;19.42;47.30;97804.77;105888;1261;100248;-85
2023/10/05 10:39:33;;;;;;;6.30;2.80;;;;;;;19.38;47.84;97806.62;105289;1266;100239;-85
2023/10/05 10:42:40;;;;;;;5.30;2.90;;;;;;;19.47;47.95;97799.87;104989;1265;96743;-86
2023/10/05 11:20:33;;;;;;;4.10;2.20;;;;;;;20.53;46.51;97739.93;105605;1266;95928;-86
2023/10/05 11:23:40;;;;;;;5.10;2.50;;;;;;;20.48;46.22;97740.95;106189;1253;98877;-88
2023/10/05 11:27:05;;;;;;;4.00;2.30;;;;;;;20.49;46.20;97741.24;105315;1274;95999;-91
2023/10/05 11:30:18;;;;;;;3.80;2.40;;;;;;;20.48;46.01;97738.11;105205;1271;96320;-87
2023/10/05 11:33:33;;;;;;;2.90;2.10;;;;;;;20.51;45.93;97734.84;104871;1270;99689;-89
2023/10/05 11:47:07;;;;;;;5.10;2.60;;;;;;;20.55;45.11;97720.70;101912;1296;640376;-86
2023/10/05 11:50:24;;;;;;;4.90;2.70;;;;;;;20.68;45.06;97725.25;103139;1281;95998;-89
2023/10/05 12:17:34;;;;;;;4.20;3.00;;;;;;;20.51;43.59;97705.73;102482;1288;644433;-86
2023/10/05 12:20:45;;;;;;;3.30;2.40;;;;;;;20.65;43.00;97691.52;100405;1272;5340283;-87
2023/10/05 12:23:53;;;;;;;6.20;2.70;;;;;;;20.62;43.34;97686.73;103496;1300;97240;-88
2023/10/05 12:27:13;;;;;;;4.30;2.70;;;;;;;20.63;43.45;97682.18;102959;1287;97329;-86
2023/10/05 12:43:43;;;;;;;6.80;3.40;;;;;;;19.60;42.35;97662.34;101761;1296;638796;-89
2023/10/05 12:46:54;;;;;;;4.70;2.80;;;;;;;19.48;42.75;97657.73;103930;1272;97146;-86
2023/10/05 12:50:06;;;;;;;5.20;3.10;;;;;;;19.48;43.07;97652.55;102769;1284;96220;-86
2023/10/05 13:22:09;;;;;;;6.60;3.60;;;;;;;20.52;42.68;97645.21;105768;1262;98157;-87
2023/10/05 13:25:19;;;;;;;5.40;3.40;;;;;;;20.35;42.56;97641.08;105933;1264;100343;-91
2023/10/05 13:28:35;;;;;;;12.10;5.70;;;;;;;20.16;42.88;97634.63;104849;1283;100343;-87
2023/10/05 13:32:26;;;;;;;8.60;4.70;;;;;;;20.03;43.11;97635.17;103850;1278;95988;-93
2023/10/05 15:01:46;;;;;;;6.30;3.50;;;;;;;18.19;46.66;97610.05;107040;1247;95844;-85
2023/10/05 15:04:54;;;;;;;5.90;3.40;;;;;;;18.14;46.35;97607.89;105657;1260;97358;-80
2023/10/05 15:07:50;;;;;;;6.90;3.40;;;;;;;18.08;46.51;97609.20;105092;1273;99968;-80
2023/10/05 15:10:58;;;;;;;6.70;3.40;;;;;;;18.03;47.02;97608.03;105885;1257;108926;-80
2023/10/05 15:13:45;;;;;;;10.30;5.40;;;;;;;18.01;47.92;97610.52;105043;1266;98907;-80
2023/10/05 15:16:52;;;;;;;12.20;4.70;;;;;;;17.90;48.98;97609.19;105050;1266;95931;-82
2023/10/05 15:19:59;;;;;;;11.30;4.50;;;;;;;17.77;49.80;97615.78;105170;1263;96918;-82
2023/10/05 16:10:38;;;;;;;30.90;19.00;;;;;;;16.81;56.20;97668.44;101820;1294;642720;-91
2023/10/05 16:13:48;;;;;;;33.70;19.60;;;;;;;16.50;57.35;97673.91;99902;1279;5331047;-91
2023/10/05 16:16:58;;;;;;;30.40;19.80;;;;;;;16.24;57.96;97684.45;103315;1277;100587;-90
2023/10/05 18:52:32;;;;;;;27.50;16.00;;;;;;;11.59;69.95;97820.67;105042;1273;98502;-83
2023/10/05 18:55:39;;;;;;;38.30;21.30;;;;;;;11.58;70.26;97831.78;106957;1252;95886;-83
2023/10/05 18:58:45;;;;;;;40.00;21.50;;;;;;;11.54;70.40;97835.52;105682;1258;96004;-84
2023/10/05 19:01:36;;;;;;;27.90;15.50;;;;;;;11.46;70.45;97835.55;105142;1266;100807;-79
2023/10/05 19:04:43;;;;;;;22.60;13.50;;;;;;;11.40;70.62;97838.36;105170;1268;101414;-80
2023/10/05 19:07:50;;;;;;;22.30;12.70;;;;;;;11.36;70.94;97835.70;104656;1273;98766;-80
2023/10/05 19:56:56;;;;;;;18.20;10.50;;;;;;;11.03;72.78;97857.70;105348;1278;98093;-86
2023/10/05 20:00:10;;;;;;;15.00;9.50;;;;;;;10.99;72.86;97858.52;109697;1252;100373;-85
2023/10/05 20:03:17;;;;;;;20.40;10.30;;;;;;;10.97;73.01;97864.72;108489;1266;98874;-84
2023/10/05 20:06:24;;;;;;;15.10;7.80;;;;;;;10.96;72.84;97864.59;108124;1272;93775;-83
2023/10/05 21:43:33;;;;;;;16.40;9.00;;;;;;;11.48;73.95;97877.80;105467;1261;95829;-75
2023/10/05 21:46:02;;;;;;;13.30;9.10;;;;;;;11.50;73.99;97878.71;106998;1248;99624;-87
2023/10/05 21:48:49;;;;;;;20.10;12.40;;;;;;;11.48;74.03;97872.98;106855;1248;100216;-76
2023/10/05 21:51:46;;;;;;;25.20;12.50;;;;;;;11.48;74.12;97878.04;106820;1248;99093;-79
2023/10/05 21:54:53;;;;;;;17.50;9.90;;;;;;;11.49;74.23;97879.00;106840;1244;95850;-77
2023/10/05 21:57:59;;;;;;;17.10;9.80;;;;;;;11.47;74.41;97877.01;105348;1273;97234;-76
2023/10/05 22:01:00;;;;;;;19.60;11.30;;;;;;;11.48;74.43;97876.59;105345;1263;100469;-83
2023/10/05 22:04:07;;;;;;;20.40;10.60;;;;;;;11.52;74.57;97876.27;104818;1270;101011;-81
2023/10/05 22:07:03;;;;;;;18.40;9.80;;;;;;;11.52;74.73;97871.90;104853;1274;99338;-85
2023/10/05 22:10:11;;;;;;;19.40;10.10;;;;;;;11.53;74.68;97871.98;104983;1278;96198;-85
2023/10/05 22:13:08;;;;;;;20.70;10.00;;;;;;;11.52;74.68;97875.69;104369;1277;96031;-85
2023/10/05 22:45:00;;;;;;;14.30;8.50;;;;;;;11.93;75.12;97890.23;105370;1264;97779;-85
2023/10/05 22:48:07;;;;;;;18.50;8.30;;;;;;;11.89;75.20;97893.23;105673;1258;100488;-86
2023/10/05 22:51:16;;;;;;;16.90;7.70;;;;;;;11.85;75.22;97893.55;104676;1275;98899;-87
2023/10/05 22:54:56;;;;;;;12.70;7.80;;;;;;;11.86;75.06;97898.39;101215;1296;640631;-80
2023/10/05 22:58:04;;;;;;;14.20;8.00;;;;;;;11.85;75.31;97905.79;103411;1282;96012;-80
2023/10/05 23:01:14;;;;;;;16.40;8.40;;;;;;;11.81;75.29;97906.20;102216;1291;96352;-85
2023/10/05 23:04:16;;;;;;;17.00;7.60;;;;;;;11.73;75.00;97905.66;102158;1301;99479;-85
2023/10/05 23:24:36;;;;;;;15.00;7.70;;;;;;;12.15;75.44;97921.87;105030;1266;94452;-76
2023/10/05 23:27:23;;;;;;;;;;;;;;;12.07;75.67;97925.45;105557;1262;96034;-85
2023/10/05 23:30:30;;;;;;;10.90;6.20;;;;;;;11.99;75.93;97933.05;108660;1260;98341;-84
2023/10/05 23:33:37;;;;;;;13.50;7.50;;;;;;;11.90;76.05;97936.71;108245;1267;100199;-87
